sensor_id;sensor_type;location;lat;lon;timestamp;P1;durP1;ratioP1;P2;durP2;ratioP2
72483;SDS011;74199;52.014;5.430;2023-12-04T00:00:35;9.23;;;4.70;;
72483;SDS011;74199;52.014;5.430;2023-12-04T00:03:03;7.63;;;4.30;;
72483;SDS011;74199;52.014;5.430;2023-12-04T00:05:30;9.70;;;4.57;;
72483;SDS011;74199;52.014;5.430;2023-12-04T00:07:56;9.45;;;4.60;;
72483;SDS011;74199;52.014;5.430;2023-12-04T00:10:23;8.23;;;5.10;;
72483;SDS011;74199;52.014;5.430;2023-12-04T00:12:50;7.38;;;4.68;;
72483;SDS011;74199;52.014;5.430;2023-12-04T00:15:18;8.43;;;4.90;;
72483;SDS011;74199;52.014;5.430;2023-12-04T00:17:46;7.35;;;4.57;;
72483;SDS011;74199;52.014;5.430;2023-12-04T00:20:13;7.32;;;4.45;;
72483;SDS011;74199;52.014;5.430;2023-12-04T00:22:40;7.47;;;4.80;;
72483;SDS011;74199;52.014;5.430;2023-12-04T00:25:07;8.70;;;4.45;;
72483;SDS011;74199;52.014;5.430;2023-12-04T00:27:34;7.80;;;4.40;;
72483;SDS011;74199;52.014;5.430;2023-12-04T00:30:01;8.27;;;4.82;;
72483;SDS011;74199;52.014;5.430;2023-12-04T00:32:30;8.60;;;4.90;;
72483;SDS011;74199;52.014;5.430;2023-12-04T00:34:57;8.13;;;4.78;;
72483;SDS011;74199;52.014;5.430;2023-12-04T00:37:25;8.95;;;4.53;;
72483;SDS011;74199;52.014;5.430;2023-12-04T00:39:53;9.50;;;4.90;;
72483;SDS011;74199;52.014;5.430;2023-12-04T00:42:20;9.18;;;5.40;;
72483;SDS011;74199;52.014;5.430;2023-12-04T00:44:47;9.02;;;5.40;;
72483;SDS011;74199;52.014;5.430;2023-12-04T00:47:14;10.18;;;5.03;;
72483;SDS011;74199;52.014;5.430;2023-12-04T00:49:41;9.27;;;4.93;;
72483;SDS011;74199;52.014;5.430;2023-12-04T00:52:09;8.43;;;5.25;;
72483;SDS011;74199;52.014;5.430;2023-12-04T00:54:38;7.68;;;5.20;;
72483;SDS011;74199;52.014;5.430;2023-12-04T00:57:06;10.57;;;5.40;;
72483;SDS011;74199;52.014;5.430;2023-12-04T00:59:33;9.13;;;5.35;;
72483;SDS011;74199;52.014;5.430;2023-12-04T01:02:01;9.77;;;5.45;;
72483;SDS011;74199;52.014;5.430;2023-12-04T01:04:28;9.65;;;5.30;;
72483;SDS011;74199;52.014;5.430;2023-12-04T01:06:55;9.40;;;5.68;;
72483;SDS011;74199;52.014;5.430;2023-12-04T01:09:22;11.00;;;5.10;;
72483;SDS011;74199;52.014;5.430;2023-12-04T01:11:53;11.07;;;6.15;;
72483;SDS011;74199;52.014;5.430;2023-12-04T01:14:20;8.73;;;5.30;;
72483;SDS011;74199;52.014;5.430;2023-12-04T01:16:48;8.77;;;5.00;;
72483;SDS011;74199;52.014;5.430;2023-12-04T01:19:14;8.48;;;5.38;;
72483;SDS011;74199;52.014;5.430;2023-12-04T01:21:42;9.70;;;5.43;;
72483;SDS011;74199;52.014;5.430;2023-12-04T01:24:09;9.43;;;5.47;;
72483;SDS011;74199;52.014;5.430;2023-12-04T01:26:36;9.73;;;5.35;;
72483;SDS011;74199;52.014;5.430;2023-12-04T01:29:03;10.48;;;5.60;;
72483;SDS011;74199;52.014;5.430;2023-12-04T01:31:30;9.73;;;5.57;;
72483;SDS011;74199;52.014;5.430;2023-12-04T01:33:57;12.27;;;5.65;;
72483;SDS011;74199;52.014;5.430;2023-12-04T01:36:24;9.30;;;5.55;;
72483;SDS011;74199;52.014;5.430;2023-12-04T01:38:51;9.18;;;5.43;;
72483;SDS011;74199;52.014;5.430;2023-12-04T01:41:18;9.45;;;4.80;;
72483;SDS011;74199;52.014;5.430;2023-12-04T01:43:45;9.32;;;5.60;;
72483;SDS011;74199;52.014;5.430;2023-12-04T01:46:12;10.38;;;5.63;;
72483;SDS011;74199;52.014;5.430;2023-12-04T01:48:41;10.10;;;5.30;;
72483;SDS011;74199;52.014;5.430;2023-12-04T01:51:11;9.43;;;5.55;;
72483;SDS011;74199;52.014;5.430;2023-12-04T01:53:39;10.32;;;5.93;;
72483;SDS011;74199;52.014;5.430;2023-12-04T01:56:07;10.85;;;5.65;;
72483;SDS011;74199;52.014;5.430;2023-12-04T01:58:34;11.15;;;5.70;;
72483;SDS011;74199;52.014;5.430;2023-12-04T02:01:01;8.98;;;5.28;;
72483;SDS011;74199;52.014;5.430;2023-12-04T02:03:29;9.80;;;5.68;;
72483;SDS011;74199;52.014;5.430;2023-12-04T02:05:58;9.55;;;5.88;;
72483;SDS011;74199;52.014;5.430;2023-12-04T02:08:26;9.20;;;5.13;;
72483;SDS011;74199;52.014;5.430;2023-12-04T02:10:53;9.77;;;5.60;;
72483;SDS011;74199;52.014;5.430;2023-12-04T02:13:20;10.27;;;6.10;;
72483;SDS011;74199;52.014;5.430;2023-12-04T02:15:48;9.20;;;5.78;;
72483;SDS011;74199;52.014;5.430;2023-12-04T02:18:18;9.60;;;5.47;;
72483;SDS011;74199;52.014;5.430;2023-12-04T02:20:45;9.35;;;5.50;;
72483;SDS011;74199;52.014;5.430;2023-12-04T02:23:12;10.07;;;5.75;;
72483;SDS011;74199;52.014;5.430;2023-12-04T02:25:39;9.90;;;5.22;;
72483;SDS011;74199;52.014;5.430;2023-12-04T02:28:07;13.15;;;6.05;;
72483;SDS011;74199;52.014;5.430;2023-12-04T02:30:39;8.88;;;5.35;;
72483;SDS011;74199;52.014;5.430;2023-12-04T02:33:10;10.00;;;6.30;;
72483;SDS011;74199;52.014;5.430;2023-12-04T02:35:39;9.48;;;5.57;;
72483;SDS011;74199;52.014;5.430;2023-12-04T02:38:08;13.95;;;5.78;;
72483;SDS011;74199;52.014;5.430;2023-12-04T02:40:36;8.98;;;5.53;;
72483;SDS011;74199;52.014;5.430;2023-12-04T02:43:03;11.35;;;5.80;;
72483;SDS011;74199;52.014;5.430;2023-12-04T02:45:30;10.07;;;5.90;;
72483;SDS011;74199;52.014;5.430;2023-12-04T02:47:57;12.25;;;5.72;;
72483;SDS011;74199;52.014;5.430;2023-12-04T02:50:24;8.25;;;5.07;;
72483;SDS011;74199;52.014;5.430;2023-12-04T02:52:50;10.75;;;5.85;;
72483;SDS011;74199;52.014;5.430;2023-12-04T02:55:17;10.05;;;5.47;;
72483;SDS011;74199;52.014;5.430;2023-12-04T02:57:44;11.35;;;6.20;;
72483;SDS011;74199;52.014;5.430;2023-12-04T03:00:11;9.02;;;5.68;;
72483;SDS011;74199;52.014;5.430;2023-12-04T03:02:39;9.13;;;5.28;;
72483;SDS011;74199;52.014;5.430;2023-12-04T03:05:05;10.45;;;6.00;;
72483;SDS011;74199;52.014;5.430;2023-12-04T03:07:32;9.70;;;5.75;;
72483;SDS011;74199;52.014;5.430;2023-12-04T03:10:00;10.45;;;5.63;;
72483;SDS011;74199;52.014;5.430;2023-12-04T03:12:27;9.20;;;5.03;;
72483;SDS011;74199;52.014;5.430;2023-12-04T03:14:54;9.70;;;5.80;;
72483;SDS011;74199;52.014;5.430;2023-12-04T03:17:21;12.73;;;5.18;;
72483;SDS011;74199;52.014;5.430;2023-12-04T03:19:48;10.13;;;5.80;;
72483;SDS011;74199;52.014;5.430;2023-12-04T03:22:15;8.75;;;5.32;;
72483;SDS011;74199;52.014;5.430;2023-12-04T03:24:43;9.80;;;5.75;;
72483;SDS011;74199;52.014;5.430;2023-12-04T03:27:10;9.18;;;5.07;;
72483;SDS011;74199;52.014;5.430;2023-12-04T03:29:37;9.40;;;5.50;;
72483;SDS011;74199;52.014;5.430;2023-12-04T03:32:04;10.23;;;5.45;;
72483;SDS011;74199;52.014;5.430;2023-12-04T03:34:31;10.07;;;5.53;;
72483;SDS011;74199;52.014;5.430;2023-12-04T03:36:58;11.27;;;5.55;;
72483;SDS011;74199;52.014;5.430;2023-12-04T03:39:25;9.38;;;5.18;;
72483;SDS011;74199;52.014;5.430;2023-12-04T03:41:53;8.95;;;5.32;;
72483;SDS011;74199;52.014;5.430;2023-12-04T03:44:19;10.55;;;5.38;;
72483;SDS011;74199;52.014;5.430;2023-12-04T03:46:46;8.93;;;5.35;;
72483;SDS011;74199;52.014;5.430;2023-12-04T03:49:13;9.32;;;5.28;;
72483;SDS011;74199;52.014;5.430;2023-12-04T03:51:40;11.65;;;5.45;;
72483;SDS011;74199;52.014;5.430;2023-12-04T03:54:07;8.90;;;5.57;;
72483;SDS011;74199;52.014;5.430;2023-12-04T03:56:34;10.40;;;4.60;;
72483;SDS011;74199;52.014;5.430;2023-12-04T03:59:01;10.80;;;5.10;;
72483;SDS011;74199;52.014;5.430;2023-12-04T04:01:28;9.52;;;5.22;;
72483;SDS011;74199;52.014;5.430;2023-12-04T04:03:55;9.10;;;5.10;;
72483;SDS011;74199;52.014;5.430;2023-12-04T04:06:22;9.10;;;5.40;;
72483;SDS011;74199;52.014;5.430;2023-12-04T04:08:49;10.15;;;5.75;;
72483;SDS011;74199;52.014;5.430;2023-12-04T04:11:16;9.10;;;5.30;;
72483;SDS011;74199;52.014;5.430;2023-12-04T04:13:43;9.18;;;5.13;;
72483;SDS011;74199;52.014;5.430;2023-12-04T04:16:16;10.18;;;4.72;;
72483;SDS011;74199;52.014;5.430;2023-12-04T04:18:43;8.05;;;4.53;;
72483;SDS011;74199;52.014;5.430;2023-12-04T04:21:10;8.90;;;5.15;;
72483;SDS011;74199;52.014;5.430;2023-12-04T04:23:37;9.18;;;5.03;;
72483;SDS011;74199;52.014;5.430;2023-12-04T04:26:04;10.00;;;5.47;;
72483;SDS011;74199;52.014;5.430;2023-12-04T04:28:31;9.00;;;5.10;;
72483;SDS011;74199;52.014;5.430;2023-12-04T04:30:59;10.93;;;5.25;;
72483;SDS011;74199;52.014;5.430;2023-12-04T04:33:26;9.07;;;4.90;;
72483;SDS011;74199;52.014;5.430;2023-12-04T04:35:53;8.93;;;4.88;;
72483;SDS011;74199;52.014;5.430;2023-12-04T04:38:20;8.43;;;5.32;;
72483;SDS011;74199;52.014;5.430;2023-12-04T04:40:46;7.80;;;4.70;;
72483;SDS011;74199;52.014;5.430;2023-12-04T04:43:13;8.35;;;4.70;;
72483;SDS011;74199;52.014;5.430;2023-12-04T04:45:40;10.20;;;4.97;;
72483;SDS011;74199;52.014;5.430;2023-12-04T04:48:07;7.53;;;4.70;;
72483;SDS011;74199;52.014;5.430;2023-12-04T04:50:34;8.32;;;4.75;;
72483;SDS011;74199;52.014;5.430;2023-12-04T04:53:01;8.38;;;4.60;;
72483;SDS011;74199;52.014;5.430;2023-12-04T04:55:28;8.27;;;4.70;;
72483;SDS011;74199;52.014;5.430;2023-12-04T04:58:14;9.05;;;4.90;;
72483;SDS011;74199;52.014;5.430;2023-12-04T05:00:42;8.30;;;4.82;;
72483;SDS011;74199;52.014;5.430;2023-12-04T05:03:10;7.35;;;5.00;;
72483;SDS011;74199;52.014;5.430;2023-12-04T05:05:37;6.90;;;4.32;;
72483;SDS011;74199;52.014;5.430;2023-12-04T05:08:04;8.20;;;4.50;;
72483;SDS011;74199;52.014;5.430;2023-12-04T05:10:31;6.53;;;4.10;;
72483;SDS011;74199;52.014;5.430;2023-12-04T05:12:58;8.07;;;4.60;;
72483;SDS011;74199;52.014;5.430;2023-12-04T05:15:25;7.88;;;4.72;;
72483;SDS011;74199;52.014;5.430;2023-12-04T05:17:52;8.30;;;4.85;;
72483;SDS011;74199;52.014;5.430;2023-12-04T05:20:19;7.05;;;3.70;;
72483;SDS011;74199;52.014;5.430;2023-12-04T05:22:46;7.35;;;4.30;;
72483;SDS011;74199;52.014;5.430;2023-12-04T05:25:13;6.70;;;4.07;;
72483;SDS011;74199;52.014;5.430;2023-12-04T05:27:40;10.50;;;4.75;;
72483;SDS011;74199;52.014;5.430;2023-12-04T05:30:08;7.68;;;4.35;;
72483;SDS011;74199;52.014;5.430;2023-12-04T05:32:35;7.13;;;4.38;;
72483;SDS011;74199;52.014;5.430;2023-12-04T05:35:02;9.02;;;4.45;;
72483;SDS011;74199;52.014;5.430;2023-12-04T05:37:29;9.60;;;4.32;;
72483;SDS011;74199;52.014;5.430;2023-12-04T05:39:56;7.20;;;4.47;;
72483;SDS011;74199;52.014;5.430;2023-12-04T05:42:23;7.72;;;4.32;;
72483;SDS011;74199;52.014;5.430;2023-12-04T05:44:49;7.75;;;4.53;;
72483;SDS011;74199;52.014;5.430;2023-12-04T05:47:21;6.95;;;4.20;;
72483;SDS011;74199;52.014;5.430;2023-12-04T05:49:48;8.70;;;4.70;;
72483;SDS011;74199;52.014;5.430;2023-12-04T05:52:15;8.15;;;4.63;;
72483;SDS011;74199;52.014;5.430;2023-12-04T05:54:42;9.40;;;4.22;;
72483;SDS011;74199;52.014;5.430;2023-12-04T05:57:09;7.25;;;3.90;;
72483;SDS011;74199;52.014;5.430;2023-12-04T05:59:36;7.20;;;4.18;;
72483;SDS011;74199;52.014;5.430;2023-12-04T06:02:03;7.75;;;3.83;;
72483;SDS011;74199;52.014;5.430;2023-12-04T06:04:30;7.20;;;4.28;;
72483;SDS011;74199;52.014;5.430;2023-12-04T06:06:57;15.60;;;4.30;;
72483;SDS011;74199;52.014;5.430;2023-12-04T06:09:24;12.90;;;4.38;;
72483;SDS011;74199;52.014;5.430;2023-12-04T06:11:51;12.43;;;4.38;;
72483;SDS011;74199;52.014;5.430;2023-12-04T06:14:18;10.10;;;4.65;;
72483;SDS011;74199;52.014;5.430;2023-12-04T06:16:45;13.02;;;4.47;;
72483;SDS011;74199;52.014;5.430;2023-12-04T06:19:12;10.52;;;4.38;;
72483;SDS011;74199;52.014;5.430;2023-12-04T06:21:39;9.55;;;4.35;;
72483;SDS011;74199;52.014;5.430;2023-12-04T06:24:06;10.20;;;4.10;;
72483;SDS011;74199;52.014;5.430;2023-12-04T06:26:35;12.50;;;4.47;;
72483;SDS011;74199;52.014;5.430;2023-12-04T06:29:07;12.32;;;5.22;;
72483;SDS011;74199;52.014;5.430;2023-12-04T06:31:34;13.15;;;4.32;;
72483;SDS011;74199;52.014;5.430;2023-12-04T06:34:01;8.32;;;4.05;;
72483;SDS011;74199;52.014;5.430;2023-12-04T06:36:29;11.75;;;4.63;;
72483;SDS011;74199;52.014;5.430;2023-12-04T06:39:01;8.90;;;4.25;;
72483;SDS011;74199;52.014;5.430;2023-12-04T06:41:30;7.18;;;3.88;;
72483;SDS011;74199;52.014;5.430;2023-12-04T06:43:58;11.38;;;4.07;;
72483;SDS011;74199;52.014;5.430;2023-12-04T06:46:25;6.50;;;4.22;;
72483;SDS011;74199;52.014;5.430;2023-12-04T06:48:57;8.45;;;3.95;;
72483;SDS011;74199;52.014;5.430;2023-12-04T06:51:25;9.10;;;4.55;;
72483;SDS011;74199;52.014;5.430;2023-12-04T06:53:52;8.13;;;4.30;;
72483;SDS011;74199;52.014;5.430;2023-12-04T06:56:19;8.95;;;4.18;;
72483;SDS011;74199;52.014;5.430;2023-12-04T06:58:46;6.68;;;3.83;;
72483;SDS011;74199;52.014;5.430;2023-12-04T07:01:13;7.80;;;3.85;;
72483;SDS011;74199;52.014;5.430;2023-12-04T07:03:41;8.68;;;4.00;;
72483;SDS011;74199;52.014;5.430;2023-12-04T07:06:08;5.07;;;3.20;;
72483;SDS011;74199;52.014;5.430;2023-12-04T07:08:35;6.85;;;4.20;;
72483;SDS011;74199;52.014;5.430;2023-12-04T07:11:02;9.90;;;3.97;;
72483;SDS011;74199;52.014;5.430;2023-12-04T07:13:30;9.52;;;3.63;;
72483;SDS011;74199;52.014;5.430;2023-12-04T07:15:57;6.60;;;3.97;;
72483;SDS011;74199;52.014;5.430;2023-12-04T07:18:26;7.50;;;3.75;;
72483;SDS011;74199;52.014;5.430;2023-12-04T07:20:53;9.10;;;4.22;;
72483;SDS011;74199;52.014;5.430;2023-12-04T07:23:20;8.68;;;3.80;;
72483;SDS011;74199;52.014;5.430;2023-12-04T07:25:50;8.35;;;4.03;;
72483;SDS011;74199;52.014;5.430;2023-12-04T07:28:18;7.30;;;4.18;;
72483;SDS011;74199;52.014;5.430;2023-12-04T07:30:46;6.72;;;3.53;;
72483;SDS011;74199;52.014;5.430;2023-12-04T07:33:13;6.90;;;3.83;;
72483;SDS011;74199;52.014;5.430;2023-12-04T07:35:40;5.32;;;3.35;;
72483;SDS011;74199;52.014;5.430;2023-12-04T07:38:07;7.07;;;3.58;;
72483;SDS011;74199;52.014;5.430;2023-12-04T07:40:34;5.25;;;3.25;;
72483;SDS011;74199;52.014;5.430;2023-12-04T07:43:00;5.95;;;3.75;;
72483;SDS011;74199;52.014;5.430;2023-12-04T07:45:28;5.72;;;3.45;;
72483;SDS011;74199;52.014;5.430;2023-12-04T07:47:55;6.90;;;3.35;;
72483;SDS011;74199;52.014;5.430;2023-12-04T07:50:22;8.35;;;3.67;;
72483;SDS011;74199;52.014;5.430;2023-12-04T07:52:50;6.80;;;4.13;;
72483;SDS011;74199;52.014;5.430;2023-12-04T07:55:17;6.53;;;3.65;;
72483;SDS011;74199;52.014;5.430;2023-12-04T07:57:44;8.15;;;4.05;;
72483;SDS011;74199;52.014;5.430;2023-12-04T08:00:11;7.88;;;3.70;;
72483;SDS011;74199;52.014;5.430;2023-12-04T08:02:38;6.65;;;3.92;;
72483;SDS011;74199;52.014;5.430;2023-12-04T08:05:06;7.20;;;3.75;;
72483;SDS011;74199;52.014;5.430;2023-12-04T08:07:35;6.65;;;4.03;;
72483;SDS011;74199;52.014;5.430;2023-12-04T08:10:02;5.55;;;3.20;;
72483;SDS011;74199;52.014;5.430;2023-12-04T08:12:30;6.80;;;3.78;;
72483;SDS011;74199;52.014;5.430;2023-12-04T08:14:57;5.35;;;3.47;;
72483;SDS011;74199;52.014;5.430;2023-12-04T08:17:24;7.07;;;3.70;;
72483;SDS011;74199;52.014;5.430;2023-12-04T08:19:51;7.20;;;3.72;;
72483;SDS011;74199;52.014;5.430;2023-12-04T08:22:19;7.65;;;3.45;;
72483;SDS011;74199;52.014;5.430;2023-12-04T08:24:46;6.55;;;3.78;;
72483;SDS011;74199;52.014;5.430;2023-12-04T08:27:13;6.97;;;3.47;;
72483;SDS011;74199;52.014;5.430;2023-12-04T08:29:40;6.90;;;3.55;;
72483;SDS011;74199;52.014;5.430;2023-12-04T08:32:07;9.63;;;3.67;;
72483;SDS011;74199;52.014;5.430;2023-12-04T08:34:34;8.98;;;3.58;;
72483;SDS011;74199;52.014;5.430;2023-12-04T08:37:02;5.53;;;3.17;;
72483;SDS011;74199;52.014;5.430;2023-12-04T08:39:29;9.00;;;4.05;;
72483;SDS011;74199;52.014;5.430;2023-12-04T08:41:56;6.03;;;3.70;;
72483;SDS011;74199;52.014;5.430;2023-12-04T08:44:30;7.68;;;3.60;;
72483;SDS011;74199;52.014;5.430;2023-12-04T08:46:57;6.13;;;3.60;;
72483;SDS011;74199;52.014;5.430;2023-12-04T08:49:24;4.93;;;3.00;;
72483;SDS011;74199;52.014;5.430;2023-12-04T08:52:05;5.85;;;3.78;;
72483;SDS011;74199;52.014;5.430;2023-12-04T08:54:32;6.10;;;3.38;;
72483;SDS011;74199;52.014;5.430;2023-12-04T08:57:00;5.72;;;2.95;;
72483;SDS011;74199;52.014;5.430;2023-12-04T08:59:31;6.00;;;3.10;;
72483;SDS011;74199;52.014;5.430;2023-12-04T09:01:59;6.40;;;2.90;;
72483;SDS011;74199;52.014;5.430;2023-12-04T09:04:33;7.43;;;3.67;;
72483;SDS011;74199;52.014;5.430;2023-12-04T09:07:00;6.32;;;3.30;;
72483;SDS011;74199;52.014;5.430;2023-12-04T09:09:47;6.43;;;3.38;;
72483;SDS011;74199;52.014;5.430;2023-12-04T09:12:15;6.45;;;3.35;;
72483;SDS011;74199;52.014;5.430;2023-12-04T09:14:42;5.72;;;3.40;;
72483;SDS011;74199;52.014;5.430;2023-12-04T09:17:10;4.47;;;3.10;;
72483;SDS011;74199;52.014;5.430;2023-12-04T09:19:36;4.82;;;3.00;;
72483;SDS011;74199;52.014;5.430;2023-12-04T09:22:04;5.05;;;3.08;;
72483;SDS011;74199;52.014;5.430;2023-12-04T09:24:44;5.57;;;3.20;;
72483;SDS011;74199;52.014;5.430;2023-12-04T09:27:11;5.53;;;3.28;;
72483;SDS011;74199;52.014;5.430;2023-12-04T09:29:38;5.35;;;3.45;;
72483;SDS011;74199;52.014;5.430;2023-12-04T09:32:06;6.97;;;3.22;;
72483;SDS011;74199;52.014;5.430;2023-12-04T09:34:33;6.13;;;3.42;;
72483;SDS011;74199;52.014;5.430;2023-12-04T09:37:00;4.70;;;3.30;;
72483;SDS011;74199;52.014;5.430;2023-12-04T09:39:36;7.85;;;3.42;;
72483;SDS011;74199;52.014;5.430;2023-12-04T09:42:03;8.20;;;3.25;;
72483;SDS011;74199;52.014;5.430;2023-12-04T09:44:31;6.00;;;3.83;;
72483;SDS011;74199;52.014;5.430;2023-12-04T09:46:59;5.93;;;3.60;;
72483;SDS011;74199;52.014;5.430;2023-12-04T09:49:29;6.38;;;3.90;;
72483;SDS011;74199;52.014;5.430;2023-12-04T09:51:57;6.65;;;3.50;;
72483;SDS011;74199;52.014;5.430;2023-12-04T09:54:26;16.40;;;4.13;;
72483;SDS011;74199;52.014;5.430;2023-12-04T09:56:54;17.45;;;3.95;;
72483;SDS011;74199;52.014;5.430;2023-12-04T09:59:23;24.88;;;4.75;;
72483;SDS011;74199;52.014;5.430;2023-12-04T10:01:53;24.13;;;4.90;;
72483;SDS011;74199;52.014;5.430;2023-12-04T10:04:20;15.25;;;5.15;;
72483;SDS011;74199;52.014;5.430;2023-12-04T10:06:51;11.77;;;3.97;;
72483;SDS011;74199;52.014;5.430;2023-12-04T10:09:19;9.70;;;3.80;;
72483;SDS011;74199;52.014;5.430;2023-12-04T10:11:50;16.00;;;3.97;;
72483;SDS011;74199;52.014;5.430;2023-12-04T10:14:21;19.25;;;4.00;;
72483;SDS011;74199;52.014;5.430;2023-12-04T10:16:48;10.00;;;3.80;;
72483;SDS011;74199;52.014;5.430;2023-12-04T10:19:26;18.00;;;4.05;;
72483;SDS011;74199;52.014;5.430;2023-12-04T10:21:57;9.95;;;3.75;;
72483;SDS011;74199;52.014;5.430;2023-12-04T10:24:30;15.40;;;3.97;;
72483;SDS011;74199;52.014;5.430;2023-12-04T10:27:03;11.18;;;3.55;;
72483;SDS011;74199;52.014;5.430;2023-12-04T10:29:40;14.70;;;4.13;;
72483;SDS011;74199;52.014;5.430;2023-12-04T10:32:17;11.05;;;3.60;;
72483;SDS011;74199;52.014;5.430;2023-12-04T10:34:48;9.38;;;3.83;;
72483;SDS011;74199;52.014;5.430;2023-12-04T10:37:15;11.32;;;3.90;;
72483;SDS011;74199;52.014;5.430;2023-12-04T10:39:50;11.48;;;4.63;;
72483;SDS011;74199;52.014;5.430;2023-12-04T10:44:54;13.65;;;3.88;;
72483;SDS011;74199;52.014;5.430;2023-12-04T10:47:22;7.78;;;3.88;;
72483;SDS011;74199;52.014;5.430;2023-12-04T10:49:50;9.50;;;4.47;;
72483;SDS011;74199;52.014;5.430;2023-12-04T10:52:18;7.75;;;3.90;;
72483;SDS011;74199;52.014;5.430;2023-12-04T10:54:46;7.20;;;4.10;;
72483;SDS011;74199;52.014;5.430;2023-12-04T10:57:27;8.27;;;4.05;;
72483;SDS011;74199;52.014;5.430;2023-12-04T11:00:03;6.05;;;4.00;;
72483;SDS011;74199;52.014;5.430;2023-12-04T11:02:33;9.20;;;4.25;;
72483;SDS011;74199;52.014;5.430;2023-12-04T11:05:03;9.68;;;4.25;;
72483;SDS011;74199;52.014;5.430;2023-12-04T11:08:15;7.05;;;4.43;;
72483;SDS011;74199;52.014;5.430;2023-12-04T11:11:05;11.02;;;4.15;;
72483;SDS011;74199;52.014;5.430;2023-12-04T11:13:37;7.32;;;4.22;;
72483;SDS011;74199;52.014;5.430;2023-12-04T11:18:44;11.13;;;5.25;;
72483;SDS011;74199;52.014;5.430;2023-12-04T11:21:17;7.20;;;4.28;;
72483;SDS011;74199;52.014;5.430;2023-12-04T11:23:47;6.60;;;3.55;;
72483;SDS011;74199;52.014;5.430;2023-12-04T11:26:14;8.93;;;4.88;;
72483;SDS011;74199;52.014;5.430;2023-12-04T11:28:42;7.22;;;4.28;;
72483;SDS011;74199;52.014;5.430;2023-12-04T11:31:10;8.43;;;4.10;;
72483;SDS011;74199;52.014;5.430;2023-12-04T11:33:38;7.80;;;3.88;;
72483;SDS011;74199;52.014;5.430;2023-12-04T11:36:08;7.95;;;4.20;;
72483;SDS011;74199;52.014;5.430;2023-12-04T11:38:43;6.85;;;4.00;;
72483;SDS011;74199;52.014;5.430;2023-12-04T11:41:16;9.35;;;4.53;;
72483;SDS011;74199;52.014;5.430;2023-12-04T11:43:50;8.15;;;4.40;;
72483;SDS011;74199;52.014;5.430;2023-12-04T11:46:19;7.60;;;4.35;;
72483;SDS011;74199;52.014;5.430;2023-12-04T11:48:49;6.55;;;4.25;;
72483;SDS011;74199;52.014;5.430;2023-12-04T11:54:10;7.53;;;4.30;;
72483;SDS011;74199;52.014;5.430;2023-12-04T11:56:40;8.00;;;4.50;;
72483;SDS011;74199;52.014;5.430;2023-12-04T11:59:22;7.43;;;4.47;;
72483;SDS011;74199;52.014;5.430;2023-12-04T12:01:55;11.07;;;4.80;;
72483;SDS011;74199;52.014;5.430;2023-12-04T12:04:25;7.80;;;4.65;;
72483;SDS011;74199;52.014;5.430;2023-12-04T12:06:55;7.80;;;4.60;;
72483;SDS011;74199;52.014;5.430;2023-12-04T12:09:22;8.23;;;4.38;;
72483;SDS011;74199;52.014;5.430;2023-12-04T12:11:49;10.75;;;4.97;;
72483;SDS011;74199;52.014;5.430;2023-12-04T12:14:19;7.30;;;4.10;;
72483;SDS011;74199;52.014;5.430;2023-12-04T12:16:48;10.63;;;4.63;;
72483;SDS011;74199;52.014;5.430;2023-12-04T12:19:15;11.00;;;4.38;;
72483;SDS011;74199;52.014;5.430;2023-12-04T12:21:45;8.90;;;5.00;;
72483;SDS011;74199;52.014;5.430;2023-12-04T12:24:14;10.52;;;4.47;;
72483;SDS011;74199;52.014;5.430;2023-12-04T12:26:41;9.38;;;4.90;;
72483;SDS011;74199;52.014;5.430;2023-12-04T12:29:08;9.40;;;4.60;;
72483;SDS011;74199;52.014;5.430;2023-12-04T12:31:35;7.18;;;4.57;;
72483;SDS011;74199;52.014;5.430;2023-12-04T12:34:02;8.63;;;4.68;;
72483;SDS011;74199;52.014;5.430;2023-12-04T12:36:30;8.80;;;4.60;;
72483;SDS011;74199;52.014;5.430;2023-12-04T12:39:01;8.68;;;4.38;;
72483;SDS011;74199;52.014;5.430;2023-12-04T12:41:30;8.40;;;4.70;;
72483;SDS011;74199;52.014;5.430;2023-12-04T12:43:57;9.43;;;5.50;;
72483;SDS011;74199;52.014;5.430;2023-12-04T12:46:26;7.30;;;4.65;;
72483;SDS011;74199;52.014;5.430;2023-12-04T12:48:54;8.95;;;4.97;;
72483;SDS011;74199;52.014;5.430;2023-12-04T12:51:22;9.43;;;5.03;;
72483;SDS011;74199;52.014;5.430;2023-12-04T12:53:50;9.07;;;4.55;;
72483;SDS011;74199;52.014;5.430;2023-12-04T12:56:18;10.10;;;4.05;;
72483;SDS011;74199;52.014;5.430;2023-12-04T12:58:45;9.43;;;4.88;;
72483;SDS011;74199;52.014;5.430;2023-12-04T13:01:12;9.88;;;4.75;;
72483;SDS011;74199;52.014;5.430;2023-12-04T13:03:40;6.88;;;4.03;;
72483;SDS011;74199;52.014;5.430;2023-12-04T13:06:11;8.85;;;4.20;;
72483;SDS011;74199;52.014;5.430;2023-12-04T13:08:38;8.80;;;4.53;;
72483;SDS011;74199;52.014;5.430;2023-12-04T13:11:07;7.95;;;4.70;;
72483;SDS011;74199;52.014;5.430;2023-12-04T13:13:35;8.23;;;4.97;;
72483;SDS011;74199;52.014;5.430;2023-12-04T13:16:02;8.15;;;4.95;;
72483;SDS011;74199;52.014;5.430;2023-12-04T13:18:29;9.88;;;4.72;;
72483;SDS011;74199;52.014;5.430;2023-12-04T13:20:58;8.25;;;4.90;;
72483;SDS011;74199;52.014;5.430;2023-12-04T13:23:25;11.88;;;5.10;;
72483;SDS011;74199;52.014;5.430;2023-12-04T13:25:52;8.07;;;4.80;;
72483;SDS011;74199;52.014;5.430;2023-12-04T13:28:21;10.98;;;5.22;;
72483;SDS011;74199;52.014;5.430;2023-12-04T13:30:58;7.57;;;4.82;;
72483;SDS011;74199;52.014;5.430;2023-12-04T13:33:24;9.07;;;4.47;;
72483;SDS011;74199;52.014;5.430;2023-12-04T13:35:52;7.63;;;4.82;;
72483;SDS011;74199;52.014;5.430;2023-12-04T13:38:19;10.15;;;5.32;;
72483;SDS011;74199;52.014;5.430;2023-12-04T13:40:55;9.00;;;4.93;;
72483;SDS011;74199;52.014;5.430;2023-12-04T13:43:54;11.98;;;5.50;;
72483;SDS011;74199;52.014;5.430;2023-12-04T13:46:22;7.70;;;4.65;;
72483;SDS011;74199;52.014;5.430;2023-12-04T13:48:49;9.13;;;4.95;;
72483;SDS011;74199;52.014;5.430;2023-12-04T13:51:16;8.48;;;5.07;;
72483;SDS011;74199;52.014;5.430;2023-12-04T13:53:43;11.45;;;4.97;;
72483;SDS011;74199;52.014;5.430;2023-12-04T13:56:11;8.63;;;5.25;;
72483;SDS011;74199;52.014;5.430;2023-12-04T13:58:47;9.45;;;5.13;;
72483;SDS011;74199;52.014;5.430;2023-12-04T14:01:23;9.05;;;4.90;;
72483;SDS011;74199;52.014;5.430;2023-12-04T14:03:51;8.68;;;4.95;;
72483;SDS011;74199;52.014;5.430;2023-12-04T14:06:19;8.15;;;4.38;;
72483;SDS011;74199;52.014;5.430;2023-12-04T14:08:47;7.68;;;4.82;;
72483;SDS011;74199;52.014;5.430;2023-12-04T14:11:14;10.48;;;5.55;;
72483;SDS011;74199;52.014;5.430;2023-12-04T14:13:41;9.10;;;5.10;;
72483;SDS011;74199;52.014;5.430;2023-12-04T14:16:08;10.20;;;5.45;;
72483;SDS011;74199;52.014;5.430;2023-12-04T14:18:36;8.82;;;5.00;;
72483;SDS011;74199;52.014;5.430;2023-12-04T14:21:03;10.75;;;5.25;;
72483;SDS011;74199;52.014;5.430;2023-12-04T14:23:31;9.52;;;5.40;;
72483;SDS011;74199;52.014;5.430;2023-12-04T14:25:58;10.00;;;4.82;;
72483;SDS011;74199;52.014;5.430;2023-12-04T14:28:25;11.32;;;5.20;;
72483;SDS011;74199;52.014;5.430;2023-12-04T14:31:00;7.22;;;4.35;;
72483;SDS011;74199;52.014;5.430;2023-12-04T14:33:27;9.35;;;5.22;;
72483;SDS011;74199;52.014;5.430;2023-12-04T14:35:54;8.02;;;4.63;;
72483;SDS011;74199;52.014;5.430;2023-12-04T14:38:22;7.80;;;4.93;;
72483;SDS011;74199;52.014;5.430;2023-12-04T14:40:49;7.18;;;4.80;;
72483;SDS011;74199;52.014;5.430;2023-12-04T14:43:16;7.63;;;4.65;;
72483;SDS011;74199;52.014;5.430;2023-12-04T14:45:43;12.30;;;4.95;;
72483;SDS011;74199;52.014;5.430;2023-12-04T14:48:11;9.32;;;4.90;;
72483;SDS011;74199;52.014;5.430;2023-12-04T14:50:38;8.13;;;4.78;;
72483;SDS011;74199;52.014;5.430;2023-12-04T14:53:05;9.90;;;4.97;;
72483;SDS011;74199;52.014;5.430;2023-12-04T14:55:50;8.27;;;4.72;;
72483;SDS011;74199;52.014;5.430;2023-12-04T14:58:36;8.40;;;4.80;;
72483;SDS011;74199;52.014;5.430;2023-12-04T15:01:12;7.95;;;4.38;;